createdAt,value
2017-05-27T00:02:24.852Z,1013.72
2017-05-27T00:07:21.448Z,1013.67
2017-05-27T00:12:17.082Z,1013.63
2017-05-27T00:17:16.552Z,1013.63
2017-05-27T00:22:14.268Z,1013.61
2017-05-27T00:27:09.999Z,1013.49
2017-05-27T00:37:10.953Z,1013.53
2017-05-27T00:42:06.790Z,1013.45
2017-05-27T00:47:03.238Z,1013.42
2017-05-27T00:51:59.412Z,1013.41
2017-05-27T01:02:02.008Z,1013.32
2017-05-27T01:06:58.997Z,1013.33
2017-05-27T01:16:58.510Z,1013.38
2017-05-27T01:21:55.485Z,1013.34
2017-05-27T01:26:54.389Z,1013.32
2017-05-27T01:31:56.471Z,1013.26
2017-05-27T01:36:51.692Z,1013.18
2017-05-27T01:41:48.850Z,1013.19
2017-05-27T01:46:46.168Z,1013.16
2017-05-27T01:56:50.007Z,1013.15
2017-05-27T02:06:48.718Z,1013.20
2017-05-27T02:11:51.003Z,1013.23
2017-05-27T02:16:46.283Z,1013.33
2017-05-27T02:21:43.188Z,1013.44
2017-05-27T02:26:40.266Z,1013.47
2017-05-27T02:36:42.793Z,1013.42
2017-05-27T02:41:40.572Z,1013.40
2017-05-27T02:46:36.697Z,1013.44
2017-05-27T02:51:33.983Z,1013.49
2017-05-27T02:56:33.282Z,1013.56
2017-05-27T03:01:28.624Z,1013.54
2017-05-27T03:16:25.955Z,1013.64
2017-05-27T03:21:22.289Z,1013.60
2017-05-27T03:31:20.286Z,1013.55
2017-05-27T03:36:16.646Z,1013.66
2017-05-27T03:41:15.664Z,1013.65
2017-05-27T03:46:10.773Z,1013.61
2017-05-27T03:51:07.650Z,1013.59
2017-05-27T03:56:05.943Z,1013.50
2017-05-27T04:01:04.337Z,1013.60
2017-05-27T04:06:00.208Z,1013.63
2017-05-27T04:10:57.638Z,1013.61
2017-05-27T04:15:53.769Z,1013.64
2017-05-27T04:25:50.060Z,1013.86
2017-05-27T04:30:46.725Z,1013.80
2017-05-27T04:35:44.800Z,1013.92
2017-05-27T04:45:42.619Z,1013.88
2017-05-27T04:50:41.554Z,1013.93
2017-05-27T04:55:37.408Z,1013.92
2017-05-27T05:00:34.567Z,1013.89
2017-05-27T05:05:30.673Z,1013.84
2017-05-27T05:10:27.627Z,1013.84
2017-05-27T05:15:25.060Z,1013.92
2017-05-27T05:25:21.744Z,1013.90
2017-05-27T05:30:17.758Z,1013.89
2017-05-27T05:40:17.966Z,1013.93
2017-05-27T05:45:13.965Z,1013.80
2017-05-27T05:50:12.731Z,1013.88
2017-05-27T05:55:08.109Z,1013.82
2017-05-27T06:00:03.990Z,1013.85
2017-05-27T06:04:59.587Z,1013.86
2017-05-27T06:09:55.355Z,1013.93
2017-05-27T06:14:52.006Z,1013.90
2017-05-27T06:19:47.891Z,1013.89
2017-05-27T06:24:43.777Z,1013.84
2017-05-27T06:29:40.125Z,1013.88
2017-05-27T06:34:37.565Z,1013.89
2017-05-27T06:39:32.962Z,1013.97
2017-05-27T06:44:29.399Z,1014.02
2017-05-27T06:49:25.141Z,1013.89
2017-05-27T06:54:22.078Z,1013.97
2017-05-27T06:59:17.760Z,1013.97
2017-05-27T07:04:13.599Z,1013.98
2017-05-27T07:09:09.716Z,1013.89
2017-05-27T07:14:05.469Z,1013.81
2017-05-27T07:19:02.917Z,1013.81
2017-05-27T07:23:58.356Z,1013.80
2017-05-27T07:28:54.264Z,1013.80
2017-05-27T07:33:52.144Z,1013.80
2017-05-27T07:38:48.359Z,1013.68
2017-05-27T07:43:44.161Z,1013.64
2017-05-27T07:48:40.609Z,1013.73
2017-05-27T07:53:39.652Z,1013.77
2017-05-27T07:58:38.083Z,1013.71
2017-05-27T08:03:37.170Z,1013.64
2017-05-27T08:08:34.558Z,1013.69
2017-05-27T08:13:31.814Z,1013.62
2017-05-27T08:18:28.572Z,1013.58
2017-05-27T08:23:25.646Z,1013.61
2017-05-27T08:28:22.380Z,1013.54
2017-05-27T08:33:18.755Z,1013.48
2017-05-27T08:38:15.394Z,1013.52
2017-05-27T08:43:11.823Z,1013.48
2017-05-27T08:48:08.456Z,1013.41
2017-05-27T08:53:05.407Z,1013.53
2017-05-27T08:58:02.524Z,1013.48
2017-05-27T09:02:59.199Z,1013.50
2017-05-27T09:07:55.391Z,1013.50
2017-05-27T09:12:51.901Z,1013.45
2017-05-27T09:17:48.193Z,1013.42
2017-05-27T09:22:44.299Z,1013.33
2017-05-27T09:27:40.725Z,1013.33
2017-05-27T09:32:37.471Z,1013.20
2017-05-27T09:37:35.607Z,1013.28
2017-05-27T09:42:31.014Z,1013.32
2017-05-27T09:47:27.135Z,1013.25
2017-05-27T09:52:23.671Z,1013.26
2017-05-27T09:57:19.787Z,1013.21
2017-05-27T10:02:15.927Z,1013.09
2017-05-27T10:07:11.746Z,1013.11
2017-05-27T10:12:07.833Z,1013.08
2017-05-27T10:17:04.083Z,1013.08
2017-05-27T10:22:00.397Z,1012.94
2017-05-27T10:26:56.387Z,1012.92
2017-05-27T10:31:52.780Z,1012.79
2017-05-27T10:36:51.266Z,1012.62
2017-05-27T10:41:46.973Z,1012.68
2017-05-27T10:46:43.391Z,1012.65
2017-05-27T10:51:40.010Z,1012.54
2017-05-27T10:56:36.658Z,1012.39
2017-05-27T11:01:33.417Z,1012.30
2017-05-27T11:06:29.634Z,1012.33
2017-05-27T11:11:26.247Z,1012.19
2017-05-27T11:16:22.572Z,1012.06
2017-05-27T11:21:19.210Z,1011.94
2017-05-27T11:26:15.556Z,1012.13
2017-05-27T11:31:12.126Z,1011.92
2017-05-27T11:36:09.667Z,1011.87
2017-05-27T11:41:05.626Z,1011.68
2017-05-27T11:46:02.530Z,1011.72
2017-05-27T11:50:59.023Z,1011.74
2017-05-27T11:55:55.594Z,1011.77
2017-05-27T12:00:51.822Z,1011.73
2017-05-27T12:05:47.936Z,1011.70
2017-05-27T12:10:44.363Z,1011.64
2017-05-27T12:15:40.672Z,1011.53
2017-05-27T12:20:36.273Z,1011.59
2017-05-27T12:25:32.381Z,1011.55
2017-05-27T12:30:28.121Z,1011.63
2017-05-27T12:35:24.056Z,1011.55
2017-05-27T12:40:20.543Z,1011.55
2017-05-27T12:45:19.199Z,1011.42
2017-05-27T12:50:14.750Z,1011.45
2017-05-27T12:55:10.850Z,1011.42
2017-05-27T13:00:06.800Z,1011.23
2017-05-27T13:05:04.895Z,1011.40
2017-05-27T13:09:59.651Z,1011.28
2017-05-27T13:14:56.258Z,1011.23
2017-05-27T13:19:51.693Z,1011.20
2017-05-27T13:24:47.429Z,1011.20
2017-05-27T13:29:46.202Z,1011.02
2017-05-27T13:34:41.436Z,1011.13
2017-05-27T13:39:36.985Z,1011.09
2017-05-27T13:44:32.645Z,1011.08
2017-05-27T13:49:28.561Z,1010.96
2017-05-27T13:54:24.611Z,1010.96
2017-05-27T13:59:20.819Z,1010.89
2017-05-27T14:04:17.866Z,1010.83
2017-05-27T14:09:12.407Z,1010.65
2017-05-27T14:14:08.392Z,1010.66
2017-05-27T14:19:03.168Z,1010.67
2017-05-27T14:23:59.318Z,1010.59
2017-05-27T14:28:54.343Z,1010.68
2017-05-27T14:33:49.774Z,1010.53
2017-05-27T14:38:45.586Z,1010.52
2017-05-27T14:43:44.179Z,1010.36
2017-05-27T14:48:39.849Z,1010.43
2017-05-27T14:53:35.449Z,1010.31
2017-05-27T14:58:31.085Z,1010.20
2017-05-27T15:03:27.122Z,1010.15
2017-05-27T15:08:23.576Z,1010.21
2017-05-27T15:13:19.241Z,1010.12
2017-05-27T15:18:15.540Z,1010.09
2017-05-27T15:23:11.414Z,1010.24
2017-05-27T15:28:07.365Z,1010.23
2017-05-27T15:33:03.268Z,1010.13
2017-05-27T15:37:59.390Z,1010.08
2017-05-27T15:42:55.538Z,1010.14
2017-05-27T15:47:51.401Z,1010.10
2017-05-27T15:52:49.836Z,1010.03
2017-05-27T15:57:48.422Z,1010.05
2017-05-27T16:02:43.866Z,1009.91
2017-05-27T16:07:40.243Z,1009.95
2017-05-27T16:12:36.175Z,1009.83
2017-05-27T16:17:32.613Z,1009.92
2017-05-27T16:22:28.262Z,1009.92
2017-05-27T16:27:24.415Z,1009.90
2017-05-27T16:32:20.298Z,1009.97
2017-05-27T16:37:16.270Z,1009.95
2017-05-27T16:42:12.123Z,1010.01
2017-05-27T16:47:08.124Z,1009.92
2017-05-27T16:52:05.931Z,1009.89
2017-05-27T16:57:01.172Z,1009.81
2017-05-27T17:01:57.242Z,1009.83
2017-05-27T17:06:53.827Z,1009.75
2017-05-27T17:11:50.093Z,1009.66
2017-05-27T17:16:49.485Z,1009.63
2017-05-27T17:21:44.853Z,1009.64
2017-05-27T17:26:40.844Z,1009.66
2017-05-27T17:31:36.585Z,1009.67
2017-05-27T17:41:33.181Z,1009.68
2017-05-27T17:46:30.294Z,1009.67
2017-05-27T17:51:27.357Z,1009.66
2017-05-27T18:01:22.759Z,1009.72
2017-05-27T18:06:19.044Z,1009.71
2017-05-27T18:11:14.842Z,1009.72
2017-05-27T18:16:11.858Z,1009.73
2017-05-27T18:21:08.164Z,1009.76
2017-05-27T18:26:03.949Z,1009.69
2017-05-27T18:31:00.048Z,1009.71
2017-05-27T18:35:56.052Z,1009.71
2017-05-27T18:40:54.567Z,1009.73
2017-05-27T18:45:49.993Z,1009.71
2017-05-27T18:50:45.855Z,1009.87
2017-05-27T18:55:42.193Z,1009.80
2017-05-27T19:00:37.948Z,1009.82
2017-05-27T19:05:33.727Z,1009.85
2017-05-27T19:10:30.051Z,1009.98
2017-05-27T19:15:25.862Z,1009.95
2017-05-27T19:20:21.730Z,1009.90
2017-05-27T19:25:17.429Z,1009.96
2017-05-27T19:30:14.181Z,1010.01
2017-05-27T19:35:09.896Z,1010.02
2017-05-27T19:40:06.013Z,1010.15
2017-05-27T19:45:04.152Z,1010.18
2017-05-27T19:49:59.226Z,1010.21
2017-05-27T19:55:01.008Z,1010.27
2017-05-27T19:59:55.579Z,1010.38
2017-05-27T20:04:51.297Z,1010.41
2017-05-27T20:09:47.366Z,1010.55
2017-05-27T20:14:44.515Z,1010.46
2017-05-27T20:19:40.215Z,1010.42
2017-05-27T20:24:36.203Z,1010.51
2017-05-27T20:29:31.644Z,1010.59
2017-05-27T20:34:27.998Z,1010.56
2017-05-27T20:39:24.184Z,1010.66
2017-05-27T20:44:20.421Z,1010.58
2017-05-27T20:49:16.214Z,1010.61
2017-05-27T20:54:11.844Z,1010.55
2017-05-27T20:59:08.104Z,1010.71
2017-05-27T21:04:04.391Z,1010.70
2017-05-27T21:09:00.533Z,1010.74
2017-05-27T21:13:56.238Z,1010.73
2017-05-27T21:18:52.446Z,1010.85
2017-05-27T21:23:48.154Z,1010.81
2017-05-27T21:28:44.045Z,1010.87
2017-05-27T21:33:39.859Z,1010.97
2017-05-27T21:38:36.511Z,1010.82
2017-05-27T21:43:33.781Z,1010.86
2017-05-27T21:48:29.060Z,1010.72
2017-05-27T21:53:24.947Z,1010.79
2017-05-27T21:58:20.910Z,1010.81
2017-05-27T22:03:16.634Z,1010.73
2017-05-27T22:08:13.202Z,1010.68
2017-05-27T22:13:10.540Z,1010.71
2017-05-27T22:18:05.873Z,1010.63
2017-05-27T22:23:01.795Z,1010.76
2017-05-27T22:27:57.535Z,1010.63
2017-05-27T22:32:53.333Z,1010.62
2017-05-27T22:37:49.290Z,1010.62
2017-05-27T22:42:46.654Z,1010.79
2017-05-27T22:47:42.268Z,1010.74
2017-05-27T22:52:38.093Z,1010.73
2017-05-27T22:57:33.910Z,1010.68
2017-05-27T23:02:29.952Z,1010.70
2017-05-27T23:07:25.778Z,1010.75
2017-05-27T23:12:22.528Z,1010.71
2017-05-27T23:17:18.234Z,1010.69
2017-05-27T23:22:14.086Z,1010.73
2017-05-27T23:27:10.948Z,1010.71
2017-05-27T23:32:06.468Z,1010.62
2017-05-27T23:37:02.921Z,1010.65
2017-05-27T23:41:58.576Z,1010.64
2017-05-27T23:46:54.317Z,1010.65
2017-05-27T23:51:49.895Z,1010.79
2017-05-27T23:56:45.730Z,1010.83
